Time;durP1;ratioP1;P1;durP2;ratioP2;P2;SDS_P1;SDS_P2;PMS_P1;PMS_P2;Temp;Humidity;BMP_temperature;BMP_pressure;BME280_temperature;BME280_humidity;BME280_pressure;Samples;Min_cycle;Max_cycle;Signal;HPM_P1;HPM_P2
2023/08/23 00:00:24;;;;;;;7.73;7.13;;;20.20;99.90;;;;;;5090350;28;20826;-65
2023/08/23 00:02:51;;;;;;;7.80;7.20;;;20.10;99.90;;;;;;5090127;28;20490;-65
2023/08/23 00:05:21;;;;;;;6.93;6.40;;;20.10;99.90;;;;;;5088770;28;20456;-65
2023/08/23 00:07:48;;;;;;;7.67;7.10;;;20.10;99.90;;;;;;5089469;28;20448;-65
2023/08/23 00:10:14;;;;;;;7.00;6.50;;;20.10;99.90;;;;;;5089393;28;20448;-65
2023/08/23 00:12:41;;;;;;;7.50;7.00;;;20.10;99.90;;;;;;5089079;28;20494;-65
2023/08/23 00:15:09;;;;;;;8.17;7.43;;;20.10;99.90;;;;;;5088921;28;20543;-65
2023/08/23 00:17:36;;;;;;;7.30;6.80;;;20.00;99.90;;;;;;5089286;28;20479;-65
2023/08/23 00:20:04;;;;;;;8.10;7.30;;;20.00;99.90;;;;;;5089548;28;20455;-65
2023/08/23 00:22:32;;;;;;;9.60;7.80;;;20.00;99.90;;;;;;5089921;28;21012;-65
2023/08/23 00:24:59;;;;;;;8.60;7.90;;;19.90;99.90;;;;;;5089897;28;20445;-66
2023/08/23 00:27:26;;;;;;;6.60;6.00;;;19.90;99.90;;;;;;5089243;28;20492;-65
2023/08/23 00:29:53;;;;;;;7.80;6.93;;;19.90;99.90;;;;;;5090149;28;20450;-65
2023/08/23 00:32:19;;;;;;;7.23;6.30;;;19.90;99.90;;;;;;5089816;28;20508;-65
2023/08/23 00:34:46;;;;;;;7.30;6.80;;;19.90;99.90;;;;;;5090122;28;21049;-65
2023/08/23 00:37:13;;;;;;;7.37;6.87;;;19.90;99.90;;;;;;5089418;28;20447;-65
2023/08/23 00:39:41;;;;;;;7.00;6.50;;;19.80;99.90;;;;;;5089908;28;20947;-65
2023/08/23 00:42:08;;;;;;;7.10;6.60;;;19.80;99.90;;;;;;5088825;28;20439;-65
2023/08/23 00:44:35;;;;;;;7.80;6.97;;;19.80;99.90;;;;;;5089380;28;20518;-65
2023/08/23 00:47:02;;;;;;;7.20;6.70;;;19.80;99.90;;;;;;5088947;28;20898;-65
2023/08/23 00:49:33;;;;;;;7.70;7.00;;;19.80;99.90;;;;;;5089843;28;20527;-65
2023/08/23 00:52:02;;;;;;;7.07;6.47;;;19.70;99.90;;;;;;5089426;28;20455;-65
2023/08/23 00:54:29;;;;;;;7.13;6.63;;;19.70;99.90;;;;;;5089421;28;20450;-65
2023/08/23 00:57:00;;;;;;;6.80;6.40;;;19.70;99.90;;;;;;5088779;28;20453;-65
2023/08/23 00:59:26;;;;;;;7.27;6.67;;;19.70;99.90;;;;;;5089481;28;20452;-65
2023/08/23 01:01:54;;;;;;;7.13;6.63;;;19.60;99.90;;;;;;5089714;28;20450;-65
2023/08/23 01:04:21;;;;;;;7.23;6.73;;;19.60;99.90;;;;;;5089746;28;20471;-65
2023/08/23 01:06:55;;;;;;;6.83;6.23;;;19.50;99.90;;;;;;5088547;28;20569;-66
2023/08/23 01:09:34;;;;;;;6.80;6.40;;;19.50;99.90;;;;;;5088721;28;20802;-65
2023/08/23 01:12:10;;;;;;;7.03;6.50;;;19.50;99.90;;;;;;5089451;28;20894;-66
2023/08/23 01:14:44;;;;;;;7.30;6.70;;;19.50;99.90;;;;;;5089417;28;20452;-65
2023/08/23 01:17:14;;;;;;;9.93;7.00;;;19.40;99.90;;;;;;5088070;28;20941;-65
2023/08/23 01:19:46;;;;;;;6.87;6.20;;;19.40;99.90;;;;;;5089155;28;20447;-65
2023/08/23 01:22:17;;;;;;;8.17;7.47;;;19.40;99.90;;;;;;5089207;28;20456;-65
2023/08/23 01:24:46;;;;;;;7.83;7.23;;;19.40;99.90;;;;;;5089412;28;20450;-65
2023/08/23 01:27:12;;;;;;;7.07;6.47;;;19.40;99.90;;;;;;5088283;28;20490;-65
2023/08/23 01:29:39;;;;;;;8.30;6.80;;;19.30;99.90;;;;;;5089057;28;20817;-65
2023/08/23 01:32:32;;;;;;;7.33;6.83;;;19.30;99.90;;;;;;5088580;28;21030;-65
2023/08/23 01:35:06;;;;;;;8.47;7.70;;;19.30;99.90;;;;;;5088811;28;20948;-65
2023/08/23 01:37:34;;;;;;;7.87;7.10;;;19.20;99.90;;;;;;5088083;28;20449;-66
2023/08/23 01:40:03;;;;;;;7.00;6.37;;;19.20;99.90;;;;;;5088787;28;20533;-65
2023/08/23 01:42:31;;;;;;;7.13;6.53;;;19.20;99.90;;;;;;5088601;28;20473;-65
2023/08/23 01:44:58;;;;;;;7.20;6.60;;;19.20;99.90;;;;;;5089027;28;20537;-65
2023/08/23 01:47:24;;;;;;;7.10;6.60;;;19.10;99.90;;;;;;5088381;28;20513;-66
2023/08/23 01:49:51;;;;;;;7.47;6.87;;;19.10;99.90;;;;;;5088756;28;20450;-66
2023/08/23 01:52:18;;;;;;;7.07;6.57;;;19.10;99.90;;;;;;5088629;28;20572;-65
2023/08/23 01:54:45;;;;;;;7.90;7.10;;;19.10;99.90;;;;;;5088533;28;20442;-65
2023/08/23 01:57:13;;;;;;;9.40;8.20;;;19.00;99.90;;;;;;5087544;28;21027;-65
2023/08/23 01:59:40;;;;;;;7.30;6.73;;;19.00;99.90;;;;;;5088613;28;20573;-65
2023/08/23 02:02:07;;;;;;;10.73;7.07;;;19.00;99.90;;;;;;5088387;28;20453;-65
2023/08/23 02:04:34;;;;;;;7.60;7.00;;;18.90;99.90;;;;;;5088371;28;20453;-66
2023/08/23 02:07:01;;;;;;;7.63;7.03;;;18.90;99.90;;;;;;5086669;28;20478;-65
2023/08/23 02:09:28;;;;;;;7.93;7.33;;;18.90;99.90;;;;;;5087904;28;20533;-66
2023/08/23 02:11:55;;;;;;;7.93;7.17;;;18.90;99.90;;;;;;5087612;28;21022;-65
2023/08/23 02:14:23;;;;;;;10.00;7.87;;;18.90;99.90;;;;;;5087795;28;20471;-65
2023/08/23 02:16:50;;;;;;;8.20;7.30;;;18.90;99.90;;;;;;5087355;28;20533;-66
2023/08/23 02:19:17;;;;;;;7.80;7.20;;;18.90;99.90;;;;;;5088073;28;20457;-65
2023/08/23 02:21:43;;;;;;;8.37;6.83;;;18.90;99.90;;;;;;5088122;28;20537;-65
2023/08/23 02:24:10;;;;;;;8.63;7.43;;;18.80;99.90;;;;;;5088290;28;20473;-65
2023/08/23 02:26:37;;;;;;;7.00;6.50;;;18.80;99.90;;;;;;5087087;28;20996;-65
2023/08/23 02:29:04;;;;;;;6.83;6.43;;;18.80;99.90;;;;;;5088188;28;21029;-65
2023/08/23 02:31:32;;;;;;;7.47;6.90;;;18.80;99.90;;;;;;5087980;28;20549;-65
2023/08/23 02:33:59;;;;;;;7.13;6.60;;;18.80;99.90;;;;;;5088052;28;20473;-65
2023/08/23 02:36:26;;;;;;;7.37;6.87;;;18.80;99.90;;;;;;5087680;28;20823;-65
2023/08/23 02:38:54;;;;;;;7.47;6.90;;;18.80;99.90;;;;;;5088165;28;20457;-65
2023/08/23 02:41:21;;;;;;;8.57;7.87;;;18.80;99.90;;;;;;5086035;28;20892;-65
2023/08/23 02:43:48;;;;;;;6.90;6.30;;;18.70;99.90;;;;;;5081700;28;20558;-66
2023/08/23 02:46:15;;;;;;;7.40;6.73;;;18.70;99.90;;;;;;5083193;28;20490;-66
2023/08/23 02:48:43;;;;;;;7.33;6.73;;;18.70;99.90;;;;;;5087910;28;20561;-65
2023/08/23 02:51:10;;;;;;;7.57;6.97;;;18.70;99.90;;;;;;5088099;28;20827;-65
2023/08/23 02:53:36;;;;;;;6.63;6.13;;;18.70;99.90;;;;;;5088056;28;20558;-65
2023/08/23 02:56:04;;;;;;;8.10;7.10;;;18.70;99.90;;;;;;5087366;28;21199;-65
2023/08/23 02:58:30;;;;;;;7.40;6.80;;;18.60;99.90;;;;;;5087984;28;20525;-65
2023/08/23 03:00:57;;;;;;;7.20;6.60;;;18.60;99.90;;;;;;5087989;28;20442;-65
2023/08/23 03:03:24;;;;;;;7.50;7.00;;;18.60;99.90;;;;;;5087922;28;20577;-65
2023/08/23 03:05:55;;;;;;;6.80;6.30;;;18.60;99.90;;;;;;5087412;28;21263;-65
2023/08/23 03:08:22;;;;;;;8.10;7.60;;;18.50;99.90;;;;;;5086616;28;20490;-66
2023/08/23 03:10:49;;;;;;;6.97;6.47;;;18.50;99.90;;;;;;5087787;28;20449;-65
2023/08/23 03:13:15;;;;;;;7.07;6.37;;;18.50;99.90;;;;;;5087582;28;20470;-65
2023/08/23 03:15:42;;;;;;;7.27;6.57;;;18.50;99.90;;;;;;5087524;28;21265;-66
2023/08/23 03:18:09;;;;;;;8.20;7.40;;;18.40;99.90;;;;;;5087097;28;20453;-65
2023/08/23 03:20:36;;;;;;;7.43;6.90;;;18.40;99.90;;;;;;5087700;28;20450;-65
2023/08/23 03:23:05;;;;;;;7.13;6.70;;;18.40;99.90;;;;;;5090941;28;20493;-65
2023/08/23 03:25:33;;;;;;;7.37;6.97;;;18.40;99.90;;;;;;5087867;28;20885;-65
2023/08/23 03:28:00;;;;;;;7.43;6.87;;;18.40;99.90;;;;;;5090963;28;20489;-65
2023/08/23 03:30:27;;;;;;;8.00;7.23;;;18.40;99.90;;;;;;5091240;28;20453;-65
2023/08/23 03:32:53;;;;;;;8.33;7.70;;;18.40;99.90;;;;;;5090996;28;20498;-65
2023/08/23 03:35:20;;;;;;;8.03;7.43;;;18.30;99.90;;;;;;5091012;28;20442;-65
2023/08/23 03:37:47;;;;;;;6.70;6.30;;;18.30;99.90;;;;;;5090011;28;20446;-65
2023/08/23 03:40:15;;;;;;;7.90;7.27;;;18.30;99.90;;;;;;5072621;28;20451;-65
2023/08/23 03:42:42;;;;;;;8.47;6.77;;;18.20;99.90;;;;;;5070458;28;20471;-65
2023/08/23 03:45:10;;;;;;;7.20;6.70;;;18.20;99.90;;;;;;5070983;28;20819;-65
2023/08/23 03:47:36;;;;;;;7.63;6.20;;;18.20;99.90;;;;;;5069743;28;20577;-65
2023/08/23 03:50:04;;;;;;;6.70;6.30;;;18.20;99.90;;;;;;5070915;28;20473;-65
2023/08/23 03:52:30;;;;;;;6.93;6.33;;;18.20;99.90;;;;;;5070502;28;20470;-65
2023/08/23 03:54:57;;;;;;;7.73;7.13;;;18.20;99.90;;;;;;5070475;28;20450;-66
2023/08/23 03:57:25;;;;;;;7.43;6.73;;;18.20;99.90;;;;;;5069690;28;20443;-66
2023/08/23 03:59:52;;;;;;;7.77;7.17;;;18.10;99.90;;;;;;5070524;28;20479;-65
2023/08/23 04:02:19;;;;;;;7.27;6.77;;;18.10;99.90;;;;;;5070498;28;20475;-65
2023/08/23 04:04:46;;;;;;;6.90;6.40;;;18.10;99.90;;;;;;5070509;28;20449;-66
2023/08/23 04:07:14;;;;;;;6.90;6.30;;;18.10;99.90;;;;;;5068668;28;20501;-65
2023/08/23 04:09:42;;;;;;;6.93;6.43;;;18.10;99.90;;;;;;5072572;28;21267;-65
2023/08/23 04:12:09;;;;;;;7.30;6.57;;;18.10;99.90;;;;;;5090494;28;20449;-65
2023/08/23 04:14:37;;;;;;;7.57;6.80;;;18.00;99.90;;;;;;5081001;28;20952;-65
2023/08/23 04:17:04;;;;;;;7.87;7.17;;;18.00;99.90;;;;;;5069448;28;20449;-65
2023/08/23 04:19:31;;;;;;;8.30;7.57;;;18.00;99.90;;;;;;5087765;28;20453;-65
2023/08/23 04:21:58;;;;;;;7.90;7.40;;;18.00;99.90;;;;;;5070048;28;20546;-66
2023/08/23 04:24:25;;;;;;;7.63;6.97;;;17.90;99.90;;;;;;5076327;28;20850;-66
2023/08/23 04:26:52;;;;;;;10.90;7.17;;;17.90;99.90;;;;;;5088429;28;20478;-66
2023/08/23 04:29:18;;;;;;;7.37;6.77;;;17.90;99.90;;;;;;5089580;28;20833;-66
2023/08/23 04:31:47;;;;;;;8.50;7.70;;;17.90;99.90;;;;;;5070448;28;20458;-66
2023/08/23 04:34:14;;;;;;;7.83;7.17;;;17.90;99.90;;;;;;5087505;28;20560;-66
2023/08/23 04:36:41;;;;;;;7.20;6.70;;;17.80;99.90;;;;;;5070957;28;20455;-66
2023/08/23 04:39:07;;;;;;;7.70;7.00;;;17.80;99.90;;;;;;5069926;28;20892;-66
2023/08/23 04:41:34;;;;;;;7.17;6.67;;;17.80;99.90;;;;;;5069396;28;20451;-66
2023/08/23 04:44:01;;;;;;;10.70;7.23;;;17.80;99.90;;;;;;5069313;28;20554;-66
2023/08/23 04:46:28;;;;;;;6.90;6.20;;;17.80;99.90;;;;;;5068918;28;20562;-66
2023/08/23 04:48:56;;;;;;;8.00;7.30;;;17.80;99.90;;;;;;5069626;28;20493;-65
2023/08/23 04:51:23;;;;;;;9.40;6.70;;;17.80;99.90;;;;;;5069584;28;20999;-66
2023/08/23 04:53:50;;;;;;;7.80;7.20;;;17.80;99.90;;;;;;5069456;28;20469;-65
2023/08/23 04:56:17;;;;;;;8.43;7.23;;;17.80;99.90;;;;;;5068690;28;20545;-66
2023/08/23 04:58:44;;;;;;;7.37;6.77;;;17.80;99.90;;;;;;5069280;28;20454;-66
2023/08/23 05:01:10;;;;;;;7.63;6.93;;;17.80;99.90;;;;;;5073626;28;20450;-66
2023/08/23 05:03:37;;;;;;;8.07;7.37;;;17.80;99.90;;;;;;5088284;28;20466;-66
2023/08/23 05:06:05;;;;;;;9.73;7.53;;;17.80;99.90;;;;;;5068396;28;20453;-65
2023/08/23 05:08:34;;;;;;;7.40;6.80;;;17.80;99.90;;;;;;5069151;28;20490;-66
2023/08/23 05:11:01;;;;;;;11.90;7.10;;;17.80;99.90;;;;;;5068572;28;20454;-65
2023/08/23 05:13:28;;;;;;;8.70;8.00;;;17.80;99.90;;;;;;5068779;28;20563;-66
2023/08/23 05:15:56;;;;;;;8.10;7.30;;;17.80;99.90;;;;;;5068391;28;20550;-66
2023/08/23 05:18:23;;;;;;;8.10;7.47;;;17.80;99.90;;;;;;5069017;28;20445;-65
2023/08/23 05:20:54;;;;;;;7.77;7.10;;;17.80;99.90;;;;;;5068743;28;20454;-66
2023/08/23 05:23:22;;;;;;;8.50;7.90;;;17.90;99.90;;;;;;5068607;28;20463;-66
2023/08/23 05:25:51;;;;;;;7.37;6.97;;;17.90;99.90;;;;;;5068276;28;20554;-66
2023/08/23 05:28:18;;;;;;;8.97;8.27;;;18.00;99.90;;;;;;5068521;28;20530;-66
2023/08/23 05:30:45;;;;;;;7.90;7.20;;;18.00;99.90;;;;;;5069139;28;20477;-65
2023/08/23 05:33:12;;;;;;;7.63;7.07;;;18.00;99.90;;;;;;5068899;28;20475;-66
2023/08/23 05:35:40;;;;;;;8.30;7.70;;;18.00;99.90;;;;;;5068771;28;20450;-66
2023/08/23 05:38:06;;;;;;;8.10;7.13;;;18.10;99.90;;;;;;5067653;28;20446;-66
2023/08/23 05:40:35;;;;;;;8.33;7.70;;;18.10;99.90;;;;;;5068639;28;20454;-66
2023/08/23 05:43:02;;;;;;;7.97;7.30;;;18.10;99.90;;;;;;5068331;28;20558;-65
2023/08/23 05:45:28;;;;;;;8.17;7.57;;;18.10;99.90;;;;;;5068622;28;20451;-65
2023/08/23 05:47:56;;;;;;;8.23;7.53;;;18.20;99.90;;;;;;5066949;28;20491;-66
2023/08/23 05:50:23;;;;;;;8.43;7.47;;;18.30;99.90;;;;;;5083695;28;20455;-66
2023/08/23 05:52:50;;;;;;;8.53;7.93;;;18.30;99.90;;;;;;5076921;28;21198;-65
2023/08/23 05:55:17;;;;;;;8.80;8.00;;;18.30;99.90;;;;;;5068250;28;20936;-66
2023/08/23 05:57:45;;;;;;;7.90;7.30;;;18.40;99.90;;;;;;5067786;28;20551;-66
2023/08/23 06:00:13;;;;;;;8.40;7.73;;;18.40;99.90;;;;;;5068569;28;20577;-65
2023/08/23 06:02:40;;;;;;;8.73;8.03;;;18.50;99.90;;;;;;5068248;28;20554;-65
2023/08/23 06:05:10;;;;;;;8.73;8.03;;;18.60;99.90;;;;;;5068009;28;20818;-65
2023/08/23 06:07:37;;;;;;;7.90;7.50;;;18.70;99.90;;;;;;5067589;28;20491;-66
2023/08/23 06:10:05;;;;;;;9.17;8.40;;;18.80;99.90;;;;;;5068073;28;20447;-66
2023/08/23 06:12:32;;;;;;;8.47;7.87;;;19.00;99.90;;;;;;5069224;28;20591;-65
2023/08/23 06:15:00;;;;;;;8.97;8.30;;;19.20;99.90;;;;;;5080423;28;21079;-66
2023/08/23 06:17:28;;;;;;;7.77;7.07;;;19.40;99.90;;;;;;5087117;28;20440;-66
2023/08/23 06:19:55;;;;;;;8.50;7.80;;;19.60;99.90;;;;;;5074216;28;20830;-66
2023/08/23 06:22:22;;;;;;;8.20;7.40;;;19.80;99.90;;;;;;5083702;28;20467;-65
2023/08/23 06:24:48;;;;;;;9.60;8.63;;;19.90;99.90;;;;;;5072760;28;20538;-65
2023/08/23 06:27:15;;;;;;;7.20;6.60;;;20.10;99.90;;;;;;5087463;28;20447;-65
2023/08/23 06:29:42;;;;;;;8.90;8.20;;;20.30;99.90;;;;;;5081675;28;20456;-65
2023/08/23 06:32:10;;;;;;;8.40;7.80;;;20.60;99.90;;;;;;5087851;28;20845;-65
2023/08/23 06:34:39;;;;;;;7.80;7.30;;;20.70;99.90;;;;;;5073900;28;20827;-65
2023/08/23 06:37:06;;;;;;;8.47;7.87;;;20.90;99.90;;;;;;5086914;28;20453;-65
2023/08/23 06:39:33;;;;;;;8.30;6.93;;;21.20;99.90;;;;;;5078196;28;20472;-65
2023/08/23 06:42:00;;;;;;;13.30;8.87;;;21.40;99.90;;;;;;5083397;28;20828;-65
2023/08/23 06:44:26;;;;;;;8.70;8.10;;;21.50;99.90;;;;;;5076176;28;20492;-65
2023/08/23 06:46:53;;;;;;;8.60;8.00;;;21.70;99.90;;;;;;5078662;28;20453;-65
2023/08/23 06:49:21;;;;;;;8.40;7.60;;;21.90;99.90;;;;;;5080313;28;20482;-65
2023/08/23 06:51:48;;;;;;;8.30;7.60;;;22.10;99.90;;;;;;5083815;28;21014;-65
2023/08/23 06:54:15;;;;;;;9.33;8.63;;;22.30;99.90;;;;;;5078908;28;21374;-65
2023/08/23 06:56:42;;;;;;;7.13;6.37;;;22.50;99.90;;;;;;5085582;28;20575;-65
2023/08/23 06:59:09;;;;;;;8.10;7.40;;;22.60;99.90;;;;;;5084860;28;20479;-65
2023/08/23 07:01:35;;;;;;;7.50;7.00;;;22.80;99.90;;;;;;5089998;28;20835;-65
2023/08/23 07:04:02;;;;;;;7.37;6.77;;;23.00;99.90;;;;;;5085015;28;20473;-66
2023/08/23 07:06:31;;;;;;;7.83;7.23;;;23.20;99.90;;;;;;5090769;28;20449;-66
2023/08/23 07:08:59;;;;;;;7.70;6.20;;;23.30;99.90;;;;;;5081405;28;20498;-66
2023/08/23 07:11:26;;;;;;;6.47;6.07;;;23.40;99.90;;;;;;5088869;28;20451;-66
2023/08/23 07:13:52;;;;;;;7.70;6.40;;;23.50;99.90;;;;;;5080942;28;20470;-65
2023/08/23 07:16:19;;;;;;;5.90;5.40;;;23.60;99.90;;;;;;5089685;28;20968;-65
2023/08/23 07:18:46;;;;;;;6.67;6.00;;;23.60;99.90;;;;;;5084762;28;20826;-65
2023/08/23 07:21:14;;;;;;;6.93;5.23;;;23.80;99.90;;;;;;5090762;28;20458;-65
2023/08/23 07:23:43;;;;;;;6.27;5.50;;;23.90;99.90;;;;;;5083436;28;20961;-66
2023/08/23 07:26:10;;;;;;;8.47;6.03;;;24.00;99.90;;;;;;5084799;28;20543;-65
2023/08/23 07:28:37;;;;;;;5.83;5.43;;;24.10;99.90;;;;;;5072538;28;20483;-65
2023/08/23 07:31:04;;;;;;;7.27;6.60;;;24.20;99.90;;;;;;5085795;28;20546;-65
2023/08/23 07:33:31;;;;;;;6.10;5.60;;;24.30;99.90;;;;;;5085444;28;20491;-66
2023/08/23 07:35:58;;;;;;;6.30;5.80;;;24.30;99.90;;;;;;5083571;28;20534;-65
2023/08/23 07:38:26;;;;;;;5.33;4.83;;;24.50;99.90;;;;;;5091125;28;20440;-66
2023/08/23 07:40:59;;;;;;;5.60;5.27;;;24.60;99.90;;;;;;5086731;28;20899;-66
2023/08/23 07:43:26;;;;;;;6.27;5.63;;;24.60;99.90;;;;;;5087902;28;21076;-65
2023/08/23 07:45:54;;;;;;;7.23;5.90;;;24.70;99.90;;;;;;5089990;28;20453;-66
2023/08/23 07:48:21;;;;;;;5.47;5.07;;;24.80;99.90;;;;;;5074412;28;20489;-66
2023/08/23 07:50:49;;;;;;;6.73;6.17;;;24.90;99.90;;;;;;5070095;28;20789;-66
2023/08/23 07:53:16;;;;;;;8.77;7.80;;;25.00;99.90;;;;;;5070050;28;20478;-66
2023/08/23 07:55:43;;;;;;;13.93;11.50;;;25.10;99.90;;;;;;5070190;28;20451;-66
2023/08/23 07:58:12;;;;;;;7.07;6.47;;;25.10;99.90;;;;;;5083889;28;20451;-65
2023/08/23 08:00:38;;;;;;;5.67;5.27;;;25.10;99.90;;;;;;5088247;28;20537;-66
2023/08/23 08:03:05;;;;;;;6.50;5.90;;;25.10;99.90;;;;;;5069311;28;20556;-66
2023/08/23 08:05:34;;;;;;;9.80;6.57;;;25.20;99.90;;;;;;5069651;28;20457;-66
2023/08/23 08:08:02;;;;;;;5.67;5.17;;;25.20;99.90;;;;;;5067959;28;20579;-66
2023/08/23 08:10:29;;;;;;;6.60;5.93;;;25.30;99.90;;;;;;5069686;28;20824;-66
2023/08/23 08:12:55;;;;;;;5.73;5.23;;;25.30;99.90;;;;;;5069206;28;20581;-66
2023/08/23 08:15:24;;;;;;;6.27;5.77;;;25.40;99.90;;;;;;5069867;28;20453;-65
2023/08/23 08:17:51;;;;;;;6.50;5.90;;;25.40;99.90;;;;;;5069025;28;20455;-66
2023/08/23 08:20:18;;;;;;;6.60;6.00;;;25.40;99.90;;;;;;5082730;28;20460;-66
2023/08/23 08:22:45;;;;;;;9.10;6.23;;;25.40;99.90;;;;;;5077454;28;20550;-66
2023/08/23 08:25:12;;;;;;;6.90;5.37;;;25.40;99.90;;;;;;5068958;28;20452;-66
2023/08/23 08:27:39;;;;;;;6.33;5.73;;;25.50;99.90;;;;;;5068447;28;20448;-66
2023/08/23 08:30:07;;;;;;;7.07;5.80;;;25.50;99.90;;;;;;5069190;28;20910;-66
2023/08/23 08:32:36;;;;;;;7.37;6.17;;;25.60;99.90;;;;;;5068827;28;20564;-66
2023/08/23 08:35:04;;;;;;;6.73;5.00;;;25.60;99.90;;;;;;5081273;28;20454;-66
2023/08/23 08:37:31;;;;;;;5.77;5.27;;;25.70;99.90;;;;;;5088433;28;20815;-66
2023/08/23 08:39:57;;;;;;;8.53;6.30;;;25.80;99.90;;;;;;5077202;28;20445;-66
2023/08/23 08:42:24;;;;;;;6.00;5.60;;;25.90;99.90;;;;;;5089310;28;20469;-66
2023/08/23 08:44:52;;;;;;;6.77;5.33;;;26.00;99.90;;;;;;5069341;28;20448;-66
2023/08/23 08:47:19;;;;;;;8.07;5.60;;;26.10;99.80;;;;;;5068622;28;20535;-66
2023/08/23 08:49:47;;;;;;;5.23;4.77;;;26.10;99.40;;;;;;5069205;28;20487;-66
2023/08/23 08:52:15;;;;;;;6.13;5.63;;;26.20;99.90;;;;;;5068462;28;20454;-65
2023/08/23 08:54:43;;;;;;;7.30;5.37;;;26.20;99.30;;;;;;5085775;28;20534;-66
2023/08/23 08:57:12;;;;;;;8.43;6.17;;;26.30;98.80;;;;;;5066176;28;20548;-66
2023/08/23 08:59:41;;;;;;;9.70;6.07;;;26.30;99.10;;;;;;5068662;28;20824;-66
2023/08/23 09:02:11;;;;;;;6.33;5.77;;;26.40;99.30;;;;;;5068409;28;20452;-66
2023/08/23 09:04:39;;;;;;;8.87;6.47;;;26.50;99.40;;;;;;5074927;28;20455;-66
2023/08/23 09:07:07;;;;;;;5.90;5.33;;;26.60;99.20;;;;;;5087997;28;20445;-66
2023/08/23 09:09:34;;;;;;;5.53;5.10;;;26.70;99.90;;;;;;5085658;28;21119;-66
2023/08/23 09:12:01;;;;;;;6.90;4.87;;;26.80;99.70;;;;;;5092414;28;20481;-66
2023/08/23 09:14:30;;;;;;;5.63;5.13;;;26.90;99.50;;;;;;5087542;28;20456;-66
2023/08/23 09:16:57;;;;;;;6.00;5.60;;;27.00;99.10;;;;;;5070671;28;20445;-67
2023/08/23 09:19:24;;;;;;;5.97;5.47;;;27.10;97.90;;;;;;5087940;28;20442;-66
2023/08/23 09:21:51;;;;;;;5.30;5.00;;;27.20;98.30;;;;;;5087539;28;20880;-66
2023/08/23 09:24:20;;;;;;;8.57;4.80;;;27.20;98.60;;;;;;5087417;28;20554;-66
2023/08/23 09:26:47;;;;;;;6.03;5.50;;;27.30;97.40;;;;;;5086900;28;20457;-66
2023/08/23 09:29:14;;;;;;;6.60;5.20;;;27.30;98.10;;;;;;5087157;28;20486;-66
2023/08/23 09:31:41;;;;;;;11.23;5.40;;;27.40;98.00;;;;;;5087058;28;21076;-66
2023/08/23 09:34:13;;;;;;;5.00;4.60;;;27.40;97.50;;;;;;5087450;28;20472;-66
2023/08/23 09:36:41;;;;;;;5.73;5.10;;;27.50;97.80;;;;;;5086375;28;20973;-66
2023/08/23 09:39:09;;;;;;;5.70;5.07;;;27.60;96.10;;;;;;5087432;28;20446;-66
2023/08/23 09:41:39;;;;;;;5.67;5.17;;;27.60;95.70;;;;;;5087388;28;20486;-66
2023/08/23 09:44:07;;;;;;;7.13;6.30;;;27.60;96.30;;;;;;5086989;28;20477;-66
2023/08/23 09:46:36;;;;;;;5.23;4.83;;;27.60;95.60;;;;;;5086358;28;20876;-66
2023/08/23 09:49:05;;;;;;;5.40;5.00;;;27.60;96.20;;;;;;5087089;28;20490;-66
2023/08/23 09:51:35;;;;;;;5.30;5.00;;;27.60;96.10;;;;;;5086999;28;20449;-66
2023/08/23 09:54:11;;;;;;;6.10;4.77;;;27.70;95.90;;;;;;5086929;28;20557;-66
2023/08/23 09:56:41;;;;;;;5.73;5.33;;;27.70;95.40;;;;;;5084770;28;20553;-66
2023/08/23 09:59:08;;;;;;;6.10;5.07;;;27.80;95.10;;;;;;5087329;28;20438;-66
2023/08/23 10:01:35;;;;;;;8.03;5.20;;;27.80;95.40;;;;;;5087180;28;20531;-66
2023/08/23 10:04:03;;;;;;;5.30;4.83;;;27.90;95.60;;;;;;5087020;28;20829;-66
2023/08/23 10:06:31;;;;;;;5.07;4.77;;;28.00;94.70;;;;;;5085689;28;20447;-66
2023/08/23 10:08:59;;;;;;;5.13;4.60;;;28.00;93.50;;;;;;5071347;28;20516;-66
2023/08/23 10:11:28;;;;;;;4.37;4.03;;;28.00;93.30;;;;;;5079871;28;20545;-66
2023/08/23 10:13:59;;;;;;;4.77;4.43;;;27.90;91.90;;;;;;5078768;28;20469;-65
2023/08/23 10:16:28;;;;;;;4.60;4.20;;;28.00;93.40;;;;;;5080581;28;20460;-66
2023/08/23 10:18:55;;;;;;;6.37;5.20;;;28.00;93.10;;;;;;5086708;28;20818;-66
2023/08/23 10:21:22;;;;;;;5.60;5.10;;;28.10;92.60;;;;;;5085421;28;20544;-65
2023/08/23 10:23:49;;;;;;;5.17;4.77;;;28.10;91.70;;;;;;5081767;28;20462;-66
2023/08/23 10:26:20;;;;;;;4.20;3.80;;;28.10;91.60;;;;;;5078562;28;20707;-66
2023/08/23 10:28:52;;;;;;;6.20;4.27;;;28.10;91.20;;;;;;5085781;28;21104;-66
2023/08/23 10:31:27;;;;;;;4.60;4.13;;;28.10;90.90;;;;;;5082304;28;20493;-65
2023/08/23 10:33:55;;;;;;;4.80;4.00;;;28.20;90.40;;;;;;5078160;28;20462;-66
2023/08/23 10:36:24;;;;;;;3.97;3.67;;;28.20;90.10;;;;;;5079835;28;21253;-66
2023/08/23 10:38:51;;;;;;;5.70;3.90;;;28.20;90.40;;;;;;5086855;28;21052;-66
2023/08/23 10:41:19;;;;;;;4.30;4.10;;;28.30;90.00;;;;;;5078413;28;20458;-66
2023/08/23 10:43:47;;;;;;;3.97;3.77;;;28.30;90.40;;;;;;5083646;28;20476;-66
2023/08/23 10:46:17;;;;;;;4.10;3.70;;;28.40;90.60;;;;;;5075152;28;20461;-66
2023/08/23 10:48:45;;;;;;;4.20;3.93;;;28.50;90.40;;;;;;5085410;28;20847;-66
2023/08/23 10:51:13;;;;;;;5.00;4.60;;;28.50;88.50;;;;;;5076370;28;20459;-66
2023/08/23 10:53:41;;;;;;;4.90;4.60;;;28.60;90.00;;;;;;5084501;28;20468;-66
2023/08/23 10:56:09;;;;;;;4.97;4.57;;;28.60;90.10;;;;;;5076897;28;20458;-66
2023/08/23 10:58:36;;;;;;;5.20;4.80;;;28.70;90.20;;;;;;5086561;28;20533;-66
2023/08/23 11:01:04;;;;;;;4.03;3.77;;;28.70;89.70;;;;;;5078517;28;20534;-66
2023/08/23 11:03:31;;;;;;;4.20;3.80;;;28.80;88.50;;;;;;5086397;28;20529;-66
2023/08/23 11:05:59;;;;;;;5.80;5.33;;;28.80;87.80;;;;;;5078526;28;20526;-67
2023/08/23 11:08:26;;;;;;;5.03;4.57;;;28.90;87.20;;;;;;5084929;28;20446;-66
2023/08/23 11:10:53;;;;;;;4.13;3.73;;;28.90;87.80;;;;;;5084354;28;21040;-66
2023/08/23 11:13:20;;;;;;;8.13;5.17;;;28.90;86.60;;;;;;5086506;28;20846;-66
2023/08/23 11:15:47;;;;;;;3.70;3.50;;;28.90;86.00;;;;;;5077835;28;21031;-65
2023/08/23 11:18:14;;;;;;;3.77;3.57;;;29.00;85.50;;;;;;5081273;28;20911;-65
2023/08/23 11:20:41;;;;;;;5.23;4.83;;;29.00;87.40;;;;;;5079284;28;21060;-66
2023/08/23 11:23:09;;;;;;;5.33;4.20;;;29.10;88.00;;;;;;5076325;28;20554;-65
2023/08/23 11:25:36;;;;;;;5.20;4.70;;;29.20;86.80;;;;;;5085627;28;20450;-65
2023/08/23 11:28:06;;;;;;;4.50;4.20;;;29.30;86.60;;;;;;5085112;28;20497;-66
2023/08/23 11:30:33;;;;;;;4.47;4.07;;;29.30;87.30;;;;;;5085945;28;20864;-66
2023/08/23 11:33:00;;;;;;;4.73;4.10;;;29.40;86.40;;;;;;5086205;28;20468;-65
2023/08/23 11:35:28;;;;;;;4.43;4.10;;;29.50;86.10;;;;;;5086454;28;20969;-66
2023/08/23 11:37:55;;;;;;;4.57;4.27;;;29.60;83.70;;;;;;5085355;28;20563;-65
2023/08/23 11:40:25;;;;;;;4.87;4.57;;;29.60;85.80;;;;;;5086467;28;20438;-65
2023/08/23 11:42:56;;;;;;;4.27;4.07;;;29.60;84.30;;;;;;5087695;28;20553;-65
2023/08/23 11:45:24;;;;;;;4.23;3.83;;;29.70;85.80;;;;;;5090120;28;20749;-66
2023/08/23 11:47:53;;;;;;;4.30;4.03;;;29.70;85.50;;;;;;5088646;28;20820;-66
2023/08/23 11:50:20;;;;;;;3.97;3.67;;;29.80;84.60;;;;;;5089760;28;20482;-66
2023/08/23 11:52:48;;;;;;;4.63;4.30;;;30.00;84.90;;;;;;5089836;28;20484;-66
2023/08/23 11:55:21;;;;;;;4.50;4.10;;;30.00;82.40;;;;;;5086053;28;20454;-65
2023/08/23 11:57:54;;;;;;;4.27;3.97;;;30.10;84.30;;;;;;5085934;28;20450;-66
2023/08/23 12:00:21;;;;;;;3.90;3.57;;;30.30;82.10;;;;;;5086588;28;20450;-65
2023/08/23 12:02:48;;;;;;;4.80;4.40;;;30.30;80.80;;;;;;5089027;28;20478;-66
2023/08/23 12:05:17;;;;;;;4.20;3.90;;;30.40;82.50;;;;;;5086719;28;20454;-66
2023/08/23 12:07:44;;;;;;;3.93;3.63;;;30.40;81.60;;;;;;5088365;28;20458;-66
2023/08/23 12:10:11;;;;;;;3.83;3.53;;;30.50;81.40;;;;;;5088945;28;20482;-66
2023/08/23 12:12:38;;;;;;;4.30;3.90;;;30.70;76.50;;;;;;5082435;28;20475;-66
2023/08/23 12:15:08;;;;;;;3.67;3.27;;;30.80;79.20;;;;;;5086005;28;20552;-66
2023/08/23 12:17:35;;;;;;;3.73;3.53;;;30.90;80.10;;;;;;5088544;28;20459;-66
2023/08/23 12:20:04;;;;;;;4.00;3.73;;;31.10;79.70;;;;;;5086775;28;20834;-65
2023/08/23 12:22:31;;;;;;;3.90;3.50;;;31.10;76.30;;;;;;5089006;28;20995;-66
2023/08/23 12:24:58;;;;;;;4.67;4.00;;;31.30;76.70;;;;;;5088530;28;20457;-65
2023/08/23 12:27:25;;;;;;;4.60;4.20;;;31.40;76.10;;;;;;5084810;28;20824;-65
2023/08/23 12:29:52;;;;;;;5.13;3.40;;;31.40;76.60;;;;;;5087017;28;20509;-65
2023/08/23 12:32:20;;;;;;;5.97;4.27;;;31.40;74.90;;;;;;5088981;28;20574;-66
2023/08/23 12:34:47;;;;;;;3.53;3.30;;;31.60;73.70;;;;;;5085764;28;20548;-66
2023/08/23 12:37:14;;;;;;;3.87;3.57;;;31.60;74.20;;;;;;5082505;28;20524;-66
2023/08/23 12:39:41;;;;;;;4.20;3.77;;;31.80;72.40;;;;;;5088242;28;20453;-66
2023/08/23 12:42:08;;;;;;;3.40;3.30;;;31.90;74.30;;;;;;5087313;28;20547;-66
2023/08/23 12:44:35;;;;;;;3.63;3.33;;;32.00;69.90;;;;;;5085105;28;21213;-66
2023/08/23 12:47:02;;;;;;;3.47;3.27;;;32.10;69.80;;;;;;5085044;28;20477;-66